Streatham, United Kingdom
Current Conditions -  °F | °C
As of 2:20 PM on Tuesday 27 Jan 2015 (Local Time) from EGLC Reporting Station
Broken Clouds Broken Clouds  
Wind Chill: 43°   Ceiling: 2500
Heat Index: 48°   Visibility: 6mi
Dew Point: 37°   Wind: 12mph
Humidity: 66%   Direction: 290°WNW
Pressure: 30.27"   Gusts: NA
Location:  51.44°N, 0.13°W
Report Text: EGLC 271420Z 29010KT 9999 BKN025 09/03 Q1025
Loading
Personal Weather Stations






























Interactive Weather Map New forecast layout! Learn more

10-Day Weather Forecast

Advertisements
Track Severe Weather on mobile